createdAt,value
2023-06-10T00:00:00.123Z,1.30
2023-06-10T00:02:30.540Z,1.13
2023-06-10T00:04:58.708Z,1.30
2023-06-10T00:07:25.973Z,1.03
2023-06-10T00:09:53.376Z,1.43
2023-06-10T00:12:21.561Z,1.37
2023-06-10T00:14:51.412Z,1.23
2023-06-10T00:17:19.098Z,1.10
2023-06-10T00:19:48.456Z,1.33
2023-06-10T00:22:15.751Z,1.43
2023-06-10T00:24:43.128Z,1.07
2023-06-10T00:27:11.013Z,1.03
2023-06-10T00:29:38.246Z,1.27
2023-06-10T00:32:06.206Z,1.43
2023-06-10T00:34:33.919Z,1.33
2023-06-10T00:37:01.187Z,1.03
2023-06-10T00:39:28.456Z,1.17
2023-06-10T00:41:55.581Z,1.60
2023-06-10T00:44:22.858Z,1.10
2023-06-10T00:46:52.625Z,1.20
2023-06-10T00:49:20.723Z,1.13
2023-06-10T00:51:48.353Z,1.20
2023-06-10T00:54:15.844Z,1.50
2023-06-10T00:56:44.430Z,1.00
2023-06-10T00:59:11.779Z,0.83
2023-06-10T01:01:40.691Z,1.40
2023-06-10T01:04:10.838Z,1.93
2023-06-10T01:06:59.506Z,1.33
2023-06-10T01:09:43.159Z,1.13
2023-06-10T01:12:23.429Z,1.87
2023-06-10T01:14:52.151Z,1.10
2023-06-10T01:17:20.384Z,1.93
2023-06-10T01:20:00.724Z,1.77
2023-06-10T01:22:34.694Z,1.13
2023-06-10T01:25:07.632Z,1.43
2023-06-10T01:27:41.662Z,1.57
2023-06-10T01:30:21.873Z,1.13
2023-06-10T01:32:54.354Z,1.40
2023-06-10T01:35:26.687Z,1.37
2023-06-10T01:37:58.029Z,1.40
2023-06-10T01:40:27.076Z,1.43
2023-06-10T01:42:54.455Z,1.20
2023-06-10T01:45:21.860Z,1.00
2023-06-10T01:47:49.167Z,1.27
2023-06-10T01:50:17.716Z,1.23
2023-06-10T01:52:45.022Z,1.33
2023-06-10T01:55:12.309Z,1.20
2023-06-10T01:57:39.546Z,1.20
2023-06-10T02:00:07.762Z,0.97
2023-06-10T02:02:35.124Z,1.13
2023-06-10T02:05:02.409Z,1.40
2023-06-10T02:07:29.585Z,1.33
2023-06-10T02:09:56.866Z,1.20
2023-06-10T02:12:24.006Z,0.70
2023-06-10T02:14:51.843Z,0.80
2023-06-10T02:17:19.179Z,1.10
2023-06-10T02:19:53.698Z,1.00
2023-06-10T02:22:27.054Z,0.90
2023-06-10T02:24:54.379Z,1.27
2023-06-10T02:27:22.416Z,0.90
2023-06-10T02:29:49.615Z,1.03
2023-06-10T02:32:17.067Z,1.57
2023-06-10T02:34:44.513Z,1.60
2023-06-10T02:37:11.783Z,1.30
2023-06-10T02:39:39.016Z,1.03
2023-06-10T02:42:07.856Z,1.00
2023-06-10T02:44:35.126Z,1.23
2023-06-10T02:47:02.283Z,1.60
2023-06-10T02:49:29.589Z,1.33
2023-06-10T02:51:58.178Z,1.30
2023-06-10T02:54:25.912Z,1.87
2023-06-10T02:57:03.846Z,1.20
2023-06-10T02:59:31.105Z,1.90
2023-06-10T03:01:58.333Z,0.80
2023-06-10T03:04:27.086Z,1.20
2023-06-10T03:06:56.604Z,1.33
2023-06-10T03:09:23.741Z,0.93
2023-06-10T03:11:51.232Z,1.20
2023-06-10T03:14:18.416Z,1.10
2023-06-10T03:16:46.863Z,1.13
2023-06-10T03:19:15.851Z,1.93
2023-06-10T03:21:46.268Z,1.40
2023-06-10T03:24:13.649Z,1.40
2023-06-10T03:26:41.402Z,1.70
2023-06-10T03:29:09.080Z,1.47
2023-06-10T03:31:39.984Z,1.87
2023-06-10T03:34:07.285Z,1.30
2023-06-10T03:36:34.457Z,1.00
2023-06-10T03:39:17.152Z,1.07
2023-06-10T03:41:44.386Z,1.17
2023-06-10T03:44:11.533Z,0.93
2023-06-10T03:46:38.819Z,1.13
2023-06-10T03:49:06.989Z,1.23
2023-06-10T03:51:36.815Z,1.23
2023-06-10T03:54:04.314Z,1.47
2023-06-10T03:56:33.999Z,0.97
2023-06-10T03:59:01.481Z,1.27
2023-06-10T04:01:29.301Z,0.93
2023-06-10T04:03:56.500Z,1.97
2023-06-10T04:06:23.953Z,1.57
2023-06-10T04:08:51.100Z,1.40
2023-06-10T04:11:18.505Z,0.90
2023-06-10T04:13:45.706Z,1.30
2023-06-10T04:16:12.894Z,0.93
2023-06-10T04:18:39.932Z,1.20
2023-06-10T04:21:06.998Z,1.30
2023-06-10T04:23:34.388Z,1.27
2023-06-10T04:26:01.681Z,1.37
2023-06-10T04:28:28.812Z,1.37
2023-06-10T04:30:56.290Z,1.50
2023-06-10T04:33:23.375Z,1.10
2023-06-10T04:35:51.578Z,1.50
2023-06-10T04:38:18.842Z,1.73
2023-06-10T04:40:46.042Z,1.77
2023-06-10T04:43:14.143Z,1.23
2023-06-10T04:45:41.387Z,1.60
2023-06-10T04:48:08.983Z,1.03
2023-06-10T04:50:36.255Z,1.57
2023-06-10T04:53:03.855Z,1.57
2023-06-10T04:55:31.051Z,1.33
2023-06-10T04:57:58.762Z,1.43
2023-06-10T05:00:26.015Z,1.87
2023-06-10T05:02:53.347Z,1.23
2023-06-10T05:05:20.932Z,1.50
2023-06-10T05:07:48.234Z,1.83
2023-06-10T05:10:23.341Z,1.70
2023-06-10T05:12:50.552Z,1.50
2023-06-10T05:15:20.120Z,2.17
2023-06-10T05:17:47.329Z,1.60
2023-06-10T05:20:15.234Z,1.53
2023-06-10T05:22:42.697Z,1.20
2023-06-10T05:25:10.316Z,1.80
2023-06-10T05:27:37.783Z,1.90
2023-06-10T05:30:05.731Z,1.63
2023-06-10T05:32:35.260Z,1.47
2023-06-10T05:35:02.708Z,1.73
2023-06-10T05:37:29.981Z,1.63
2023-06-10T05:39:59.549Z,1.30
2023-06-10T05:42:26.731Z,1.53
2023-06-10T05:44:53.865Z,1.50
2023-06-10T05:47:21.293Z,1.50
2023-06-10T05:49:58.054Z,1.20
2023-06-10T05:52:26.418Z,1.67
2023-06-10T05:54:53.718Z,1.10
2023-06-10T05:58:43.720Z,1.50
2023-06-10T06:01:13.838Z,1.20
2023-06-10T06:03:41.300Z,1.70
2023-06-10T06:06:08.651Z,1.50
2023-06-10T06:08:36.014Z,1.63
2023-06-10T06:11:03.441Z,1.77
2023-06-10T06:13:30.745Z,1.63
2023-06-10T06:15:58.194Z,1.80
2023-06-10T06:18:25.762Z,1.93
2023-06-10T06:20:54.152Z,1.50
2023-06-10T06:23:21.336Z,2.00
2023-06-10T06:25:48.654Z,1.70
2023-06-10T06:28:16.297Z,1.87
2023-06-10T06:30:45.383Z,2.17
2023-06-10T06:33:16.424Z,2.00
2023-06-10T06:35:43.792Z,1.40
2023-06-10T06:38:11.181Z,1.90
2023-06-10T06:40:38.491Z,10.03
2023-06-10T06:43:05.990Z,2.53
2023-06-10T06:45:35.780Z,2.23
2023-06-10T06:48:07.747Z,1.93
2023-06-10T06:50:34.989Z,2.00
2023-06-10T06:53:02.089Z,1.80
2023-06-10T06:55:29.346Z,0.97
2023-06-10T06:57:57.020Z,1.90
2023-06-10T07:00:24.454Z,1.47
2023-06-10T07:02:51.827Z,1.60
2023-06-10T07:05:19.104Z,2.03
2023-06-10T07:07:46.295Z,1.70
2023-06-10T07:10:15.989Z,1.40
2023-06-10T07:12:43.115Z,1.80
2023-06-10T07:15:10.856Z,1.07
2023-06-10T07:17:41.610Z,2.10
2023-06-10T07:20:09.687Z,1.87
2023-06-10T07:22:36.908Z,1.53
2023-06-10T07:25:04.506Z,1.50
2023-06-10T07:27:31.756Z,1.73
2023-06-10T07:29:59.104Z,1.67
2023-06-10T07:32:26.469Z,2.00
2023-06-10T07:34:54.010Z,1.70
2023-06-10T07:37:21.267Z,1.70
2023-06-10T07:39:50.209Z,1.83
2023-06-10T07:42:17.358Z,1.77
2023-06-10T07:44:44.548Z,1.80
2023-06-10T07:47:11.818Z,1.87
2023-06-10T07:49:38.978Z,1.80
2023-06-10T07:52:07.041Z,1.73
2023-06-10T07:54:34.117Z,1.90
2023-06-10T07:57:01.261Z,1.53
2023-06-10T07:59:28.532Z,2.10
2023-06-10T08:01:55.591Z,1.83
2023-06-10T08:04:22.917Z,2.33
2023-06-10T08:06:50.238Z,2.07
2023-06-10T08:09:19.554Z,1.57
2023-06-10T08:11:48.975Z,1.77
2023-06-10T08:14:17.346Z,2.30
2023-06-10T08:16:45.668Z,2.40
2023-06-10T08:19:14.410Z,1.67
2023-06-10T08:21:41.842Z,2.07
2023-06-10T08:24:10.323Z,1.67
2023-06-10T08:26:37.886Z,1.87
2023-06-10T08:29:05.140Z,1.67
2023-06-10T08:31:32.457Z,2.00
2023-06-10T08:33:59.639Z,1.33
2023-06-10T08:36:26.937Z,1.80
2023-06-10T08:38:56.660Z,1.77
2023-06-10T08:41:30.586Z,1.53
2023-06-10T08:44:21.882Z,1.50
2023-06-10T08:46:51.122Z,2.13
2023-06-10T08:49:24.228Z,1.97
2023-06-10T08:52:01.851Z,1.97
2023-06-10T08:54:39.167Z,1.87
2023-06-10T08:57:07.902Z,1.80
2023-06-10T08:59:35.655Z,2.10
2023-06-10T09:02:06.850Z,1.40
2023-06-10T09:04:37.699Z,1.73
2023-06-10T09:07:06.520Z,2.00
2023-06-10T09:09:36.260Z,1.67
2023-06-10T09:12:04.453Z,1.80
2023-06-10T09:14:31.751Z,1.90
2023-06-10T09:16:59.497Z,1.70
2023-06-10T09:19:31.923Z,1.40
2023-06-10T09:22:19.892Z,1.50
2023-06-10T09:24:52.355Z,1.30
2023-06-10T09:27:21.139Z,2.20
2023-06-10T09:29:53.822Z,1.70
2023-06-10T09:32:22.567Z,1.80
2023-06-10T09:34:52.051Z,1.80
2023-06-10T09:37:25.601Z,1.40
2023-06-10T09:40:08.477Z,1.67
2023-06-10T09:42:40.436Z,1.50
2023-06-10T09:45:08.818Z,1.53
2023-06-10T09:47:45.840Z,1.60
2023-06-10T09:50:16.199Z,1.37
2023-06-10T09:52:54.005Z,1.90
2023-06-10T09:55:21.619Z,1.57
2023-06-10T09:57:55.827Z,1.30
2023-06-10T10:00:24.748Z,1.60
2023-06-10T10:02:57.041Z,1.50
2023-06-10T10:05:25.062Z,1.30
2023-06-10T10:07:54.520Z,1.50
2023-06-10T10:10:23.099Z,1.37
2023-06-10T10:12:59.523Z,1.47
2023-06-10T10:15:35.116Z,1.53
2023-06-10T10:18:12.080Z,1.07
2023-06-10T10:20:53.554Z,1.00
2023-06-10T10:24:06.828Z,1.40
2023-06-10T10:26:36.253Z,1.27
2023-06-10T10:29:21.654Z,1.67
2023-06-10T10:31:55.071Z,1.77
2023-06-10T10:35:03.496Z,1.37
2023-06-10T10:37:48.183Z,1.67
2023-06-10T10:40:52.782Z,8.70
2023-06-10T10:43:22.600Z,1.90
2023-06-10T10:46:49.879Z,1.87
2023-06-10T10:49:19.313Z,1.63
2023-06-10T10:51:59.626Z,1.37
2023-06-10T10:54:49.126Z,1.83
2023-06-10T10:57:25.365Z,1.83
2023-06-10T10:59:57.122Z,2.17
2023-06-10T11:02:51.183Z,1.57
2023-06-10T11:05:19.669Z,1.70
2023-06-10T11:07:58.470Z,1.53
2023-06-10T11:10:35.675Z,1.90
2023-06-10T11:13:27.807Z,2.03
2023-06-10T11:16:00.060Z,2.00
2023-06-10T11:18:34.214Z,2.13
2023-06-10T11:21:04.438Z,2.13
2023-06-10T11:23:51.402Z,1.60
2023-06-10T11:26:47.711Z,1.63
2023-06-10T11:29:20.458Z,1.27
2023-06-10T11:32:09.228Z,1.70
2023-06-10T11:34:45.199Z,1.53
2023-06-10T11:37:13.251Z,2.10
2023-06-10T11:39:40.821Z,1.60
2023-06-10T11:42:13.041Z,2.00
2023-06-10T11:44:58.242Z,2.23
2023-06-10T11:47:30.907Z,1.90
2023-06-10T11:50:06.212Z,2.17
2023-06-10T11:52:42.548Z,1.67
2023-06-10T11:55:15.942Z,2.10
2023-06-10T11:57:44.090Z,1.97
2023-06-10T12:00:15.890Z,1.90
2023-06-10T12:02:47.341Z,2.33
2023-06-10T12:05:43.554Z,2.00
2023-06-10T12:08:14.479Z,2.20
2023-06-10T12:10:43.512Z,2.17
2023-06-10T12:13:11.609Z,2.40
2023-06-10T12:15:39.034Z,2.47
2023-06-10T12:18:10.558Z,1.87
2023-06-10T12:20:39.076Z,1.97
2023-06-10T12:23:13.501Z,2.03
2023-06-10T12:25:50.257Z,2.30
2023-06-10T12:28:18.839Z,2.37
2023-06-10T12:30:46.155Z,1.63
2023-06-10T12:33:23.209Z,1.53
2023-06-10T12:35:52.738Z,1.63
2023-06-10T12:38:30.308Z,1.60
2023-06-10T12:41:08.039Z,1.60
2023-06-10T12:43:40.869Z,1.90
2023-06-10T12:46:41.058Z,2.30
2023-06-10T12:49:08.328Z,1.63
2023-06-10T12:51:38.755Z,1.50
2023-06-10T12:54:16.322Z,1.60
2023-06-10T12:57:11.354Z,1.87
2023-06-10T12:59:43.746Z,1.67
2023-06-10T13:02:50.138Z,1.73
2023-06-10T13:05:41.258Z,1.97
2023-06-10T13:08:13.800Z,1.53
2023-06-10T13:10:43.992Z,1.40
2023-06-10T13:13:15.545Z,2.47
2023-06-10T13:15:44.372Z,2.00
2023-06-10T13:18:12.257Z,2.57
2023-06-10T13:20:40.450Z,2.90
2023-06-10T13:23:08.516Z,2.70
2023-06-10T13:25:35.997Z,2.67
2023-06-10T13:30:58.775Z,2.70
2023-06-10T13:33:28.146Z,3.13
2023-06-10T13:35:55.344Z,2.43
2023-06-10T13:38:22.552Z,3.20
2023-06-10T13:40:49.886Z,2.03
2023-06-10T13:43:17.329Z,2.90
2023-06-10T13:45:44.469Z,3.43
2023-06-10T13:48:11.855Z,3.27
2023-06-10T13:50:39.575Z,2.83
2023-06-10T13:53:07.080Z,2.23
2023-06-10T13:55:34.234Z,2.30
2023-06-10T13:58:01.413Z,2.43
2023-06-10T14:00:30.372Z,2.70
2023-06-10T14:02:57.724Z,2.60
2023-06-10T14:05:25.331Z,2.37
2023-06-10T14:07:52.821Z,2.87
2023-06-10T14:10:20.215Z,2.77
2023-06-10T14:12:47.869Z,2.57
2023-06-10T14:15:15.099Z,2.40
2023-06-10T14:17:43.699Z,2.60
2023-06-10T14:20:13.842Z,2.27
2023-06-10T14:22:41.412Z,2.70
2023-06-10T14:25:09.647Z,2.23
2023-06-10T14:27:37.216Z,2.50
2023-06-10T14:30:05.952Z,3.20
2023-06-10T14:32:35.572Z,2.80
2023-06-10T14:35:04.252Z,2.87
2023-06-10T14:37:31.629Z,2.67
2023-06-10T14:39:58.797Z,2.47
2023-06-10T14:42:26.089Z,2.87
2023-06-10T14:44:53.670Z,3.00
2023-06-10T14:47:21.140Z,2.90
2023-06-10T14:49:48.348Z,3.40
2023-06-10T14:52:15.644Z,3.23
2023-06-10T14:54:42.943Z,3.40
2023-06-10T14:57:11.964Z,4.47
2023-06-10T14:59:39.328Z,4.03
2023-06-10T15:02:07.289Z,3.73
2023-06-10T15:04:37.572Z,4.50
2023-06-10T15:08:51.253Z,4.00
2023-06-10T15:11:18.602Z,4.57
2023-06-10T15:13:48.102Z,4.90
2023-06-10T15:16:16.366Z,4.53
2023-06-10T15:18:43.959Z,4.77
2023-06-10T15:21:11.469Z,4.63
2023-06-10T15:23:39.100Z,4.43
2023-06-10T15:26:06.766Z,5.00
2023-06-10T15:28:34.302Z,4.70
2023-06-10T15:31:01.845Z,4.77
2023-06-10T15:33:29.370Z,4.80
2023-06-10T15:35:57.027Z,4.93
2023-06-10T15:38:24.563Z,5.00
2023-06-10T15:40:52.003Z,4.80
2023-06-10T15:43:19.508Z,4.50
2023-06-10T15:45:47.040Z,4.60
2023-06-10T15:48:14.628Z,4.63
2023-06-10T15:50:42.242Z,3.90
2023-06-10T15:53:09.896Z,4.90
2023-06-10T15:55:37.511Z,3.90
2023-06-10T15:58:05.478Z,4.03
2023-06-10T16:00:33.012Z,3.13
2023-06-10T16:03:01.522Z,3.27
2023-06-10T16:05:29.169Z,3.60
2023-06-10T16:07:56.996Z,3.10
2023-06-10T16:10:25.320Z,3.47
2023-06-10T16:12:52.891Z,3.27
2023-06-10T16:15:28.808Z,3.53
2023-06-10T16:17:56.601Z,3.53
2023-06-10T16:20:26.967Z,2.60
2023-06-10T16:22:55.136Z,2.97
2023-06-10T16:25:22.705Z,2.80
2023-06-10T16:27:50.331Z,2.90
2023-06-10T16:30:17.826Z,2.23
2023-06-10T16:32:45.365Z,2.73
2023-06-10T16:35:13.036Z,2.20
2023-06-10T16:37:40.949Z,2.10
2023-06-10T16:40:08.924Z,2.20
2023-06-10T16:42:36.088Z,2.03
2023-06-10T16:45:03.822Z,1.83
2023-06-10T16:47:31.798Z,2.47
2023-06-10T16:49:59.441Z,2.40
2023-06-10T16:52:27.040Z,2.27
2023-06-10T16:54:54.603Z,1.60
2023-06-10T16:57:22.615Z,2.10
2023-06-10T16:59:50.228Z,2.57
2023-06-10T17:02:18.058Z,2.13
2023-06-10T17:04:45.635Z,2.10
2023-06-10T17:07:13.403Z,1.83
2023-06-10T17:09:40.887Z,1.60
2023-06-10T17:12:09.515Z,1.90
2023-06-10T17:14:37.113Z,2.03
2023-06-10T17:17:07.863Z,2.23
2023-06-10T17:19:35.779Z,1.77
2023-06-10T17:22:03.468Z,1.87
2023-06-10T17:24:31.036Z,1.57
2023-06-10T17:26:58.525Z,2.00
2023-06-10T17:29:26.223Z,1.90
2023-06-10T17:31:53.678Z,2.20
2023-06-10T17:34:21.716Z,2.23
2023-06-10T17:36:49.296Z,2.57
2023-06-10T17:39:17.160Z,2.60
2023-06-10T17:41:44.779Z,2.30
2023-06-10T17:44:15.917Z,2.13
2023-06-10T17:46:46.410Z,2.50
2023-06-10T17:49:13.973Z,2.93
2023-06-10T17:51:41.429Z,2.63
2023-06-10T17:54:09.084Z,2.40
2023-06-10T17:56:36.712Z,2.53
2023-06-10T17:59:04.492Z,2.37
2023-06-10T18:01:32.152Z,2.97
2023-06-10T18:04:04.900Z,2.77
2023-06-10T18:06:33.359Z,2.83
2023-06-10T18:09:01.345Z,2.67
2023-06-10T18:11:28.937Z,2.60
2023-06-10T18:13:56.200Z,2.70
2023-06-10T18:16:23.781Z,2.90
2023-06-10T18:18:51.250Z,2.03
2023-06-10T18:25:32.161Z,2.80
2023-06-10T18:47:56.163Z,2.90
2023-06-10T18:50:25.067Z,2.67
2023-06-10T18:52:52.961Z,2.83
2023-06-10T18:55:21.007Z,2.67
2023-06-10T18:57:48.600Z,2.60
2023-06-10T19:00:17.871Z,3.07
2023-06-10T19:02:45.286Z,2.53
2023-06-10T19:05:14.494Z,1.93
2023-06-10T19:07:47.810Z,3.07
2023-06-10T19:10:27.138Z,2.93
2023-06-10T19:13:01.334Z,2.27
2023-06-10T19:15:29.011Z,2.53
2023-06-10T19:17:56.761Z,2.80
2023-06-10T19:20:26.583Z,2.90
2023-06-10T19:22:56.360Z,3.13
2023-06-10T19:25:28.719Z,2.83
2023-06-10T19:27:58.534Z,2.70
2023-06-10T19:30:28.699Z,2.60
2023-06-10T19:33:05.079Z,2.67
2023-06-10T19:35:47.769Z,3.00
2023-06-10T19:38:15.962Z,2.80
2023-06-10T19:40:46.182Z,2.20
2023-06-10T19:43:33.574Z,2.23
2023-06-10T19:46:01.406Z,2.60
2023-06-10T19:48:36.904Z,2.50
2023-06-10T19:51:04.891Z,2.63
2023-06-10T19:53:57.629Z,2.33
2023-06-10T19:56:34.621Z,2.10
2023-06-10T19:59:02.637Z,2.03
2023-06-10T20:01:42.695Z,2.80
2023-06-10T20:04:24.954Z,3.20
2023-06-10T20:07:03.237Z,2.33
2023-06-10T20:09:42.618Z,2.30
2023-06-10T20:12:11.077Z,2.20
2023-06-10T20:14:40.076Z,2.23
2023-06-10T20:17:23.974Z,2.73
2023-06-10T20:20:00.016Z,2.57
2023-06-10T20:22:30.679Z,2.53
2023-06-10T20:25:04.767Z,2.10
2023-06-10T20:27:33.940Z,2.67
2023-06-10T20:30:08.265Z,2.30
2023-06-10T20:32:41.312Z,2.37
2023-06-10T20:35:32.821Z,2.23
2023-06-10T20:38:14.801Z,2.23
2023-06-10T20:40:45.039Z,1.63
2023-06-10T20:43:18.935Z,2.43
2023-06-10T20:45:46.672Z,2.43
2023-06-10T20:48:16.648Z,2.73
2023-06-10T20:50:48.916Z,2.03
2023-06-10T20:53:27.459Z,2.10
2023-06-10T20:55:55.369Z,2.30
2023-06-10T20:58:41.744Z,2.33
2023-06-10T21:01:09.607Z,1.47
2023-06-10T21:03:37.399Z,1.77
2023-06-10T21:06:05.562Z,2.40
2023-06-10T21:08:33.131Z,1.93
2023-06-10T21:11:00.785Z,2.87
2023-06-10T21:13:28.046Z,1.90
2023-06-10T21:15:55.716Z,2.30
2023-06-10T21:18:24.597Z,2.03
2023-06-10T21:20:52.222Z,2.57
2023-06-10T21:23:20.843Z,2.63
2023-06-10T21:25:53.043Z,2.27
2023-06-10T21:28:23.770Z,2.37
2023-06-10T21:30:51.209Z,2.23
2023-06-10T21:33:19.181Z,2.60
2023-06-10T21:35:46.903Z,2.80
2023-06-10T21:38:18.382Z,1.60
2023-06-10T21:40:48.634Z,2.03
2023-06-10T21:43:16.292Z,2.00
2023-06-10T21:45:43.759Z,2.13
2023-06-10T21:48:12.020Z,2.30
2023-06-10T21:50:39.355Z,2.53
2023-06-10T21:53:06.432Z,2.30
2023-06-10T21:55:33.583Z,3.63
2023-06-10T21:58:01.286Z,2.30
2023-06-10T22:00:28.836Z,2.87
2023-06-10T22:02:56.399Z,2.43
2023-06-10T22:05:24.309Z,2.57
2023-06-10T22:07:52.593Z,2.07
2023-06-10T22:10:20.206Z,2.57
2023-06-10T22:12:47.318Z,2.63
2023-06-10T22:15:14.821Z,2.07
2023-06-10T22:17:41.954Z,2.33
2023-06-10T22:20:09.801Z,2.40
2023-06-10T22:22:39.008Z,2.30
2023-06-10T22:25:07.699Z,2.53
2023-06-10T22:27:35.093Z,2.50
2023-06-10T22:30:02.444Z,2.83
2023-06-10T22:32:30.041Z,2.57
2023-06-10T22:34:57.489Z,1.87
2023-06-10T22:37:24.683Z,2.53
2023-06-10T22:39:51.722Z,2.77
2023-06-10T22:42:18.815Z,2.80
2023-06-10T22:44:48.558Z,2.53
2023-06-10T22:47:16.435Z,2.97
2023-06-10T22:49:43.960Z,1.87
2023-06-10T22:52:11.510Z,2.33
2023-06-10T22:54:38.846Z,2.53
2023-06-10T22:57:06.699Z,2.13
2023-06-10T22:59:34.320Z,2.47
2023-06-10T23:02:01.866Z,2.10
2023-06-10T23:04:29.171Z,2.50
2023-06-10T23:06:56.349Z,2.27
2023-06-10T23:09:27.279Z,2.53
2023-06-10T23:11:54.819Z,2.47
2023-06-10T23:14:22.546Z,2.97
2023-06-10T23:16:52.254Z,2.47
2023-06-10T23:19:20.230Z,2.47
2023-06-10T23:21:55.409Z,2.87
2023-06-10T23:24:28.491Z,2.73
2023-06-10T23:26:58.284Z,3.03
2023-06-10T23:29:26.958Z,2.93
2023-06-10T23:31:55.404Z,2.60
2023-06-10T23:34:23.309Z,2.47
2023-06-10T23:36:53.361Z,3.00
2023-06-10T23:39:21.047Z,2.30
2023-06-10T23:41:48.636Z,2.77
2023-06-10T23:44:16.221Z,2.33
2023-06-10T23:46:43.319Z,3.13
2023-06-10T23:49:10.639Z,2.77
2023-06-10T23:51:43.388Z,2.60
2023-06-10T23:54:13.843Z,2.70
2023-06-10T23:56:50.305Z,2.27
2023-06-10T23:59:17.425Z,2.57
